createdAt,value
2022-12-18T00:01:37.853Z,89.05
2022-12-18T00:04:14.522Z,87.95
2022-12-18T00:06:41.964Z,90.20
2022-12-18T00:09:10.765Z,92.72
2022-12-18T00:11:38.177Z,86.20
2022-12-18T00:14:06.098Z,107.47
2022-12-18T00:16:36.406Z,93.40
2022-12-18T00:19:05.700Z,100.53
2022-12-18T00:21:34.964Z,98.63
2022-12-18T00:24:02.688Z,96.57
2022-12-18T00:26:35.128Z,97.05
2022-12-18T00:29:14.901Z,97.57
2022-12-18T00:31:45.017Z,96.50
2022-12-18T00:34:14.671Z,90.32
2022-12-18T00:36:43.152Z,97.80
2022-12-18T00:39:13.340Z,95.82
2022-12-18T00:42:00.024Z,97.45
2022-12-18T00:44:27.624Z,98.68
2022-12-18T00:46:55.146Z,98.50
2022-12-18T00:49:22.640Z,94.90
2022-12-18T00:51:51.537Z,103.97
2022-12-18T00:54:19.486Z,93.45
2022-12-18T00:56:50.276Z,95.20
2022-12-18T00:59:23.859Z,91.47
2022-12-18T01:01:52.005Z,95.47
2022-12-18T01:04:21.441Z,102.65
2022-12-18T01:06:49.848Z,92.30
2022-12-18T01:09:17.336Z,93.35
2022-12-18T01:11:44.849Z,90.95
2022-12-18T01:14:12.614Z,88.97
2022-12-18T01:16:40.433Z,92.05
2022-12-18T01:19:08.118Z,89.50
2022-12-18T01:21:35.892Z,93.55
2022-12-18T01:24:11.476Z,92.10
2022-12-18T01:26:39.104Z,87.00
2022-12-18T01:29:06.574Z,82.07
2022-12-18T01:31:39.161Z,80.53
2022-12-18T01:34:07.448Z,87.85
2022-12-18T01:36:39.998Z,81.18
2022-12-18T01:39:17.315Z,80.00
2022-12-18T01:42:04.825Z,80.88
2022-12-18T01:44:59.474Z,80.75
2022-12-18T01:47:48.274Z,80.47
2022-12-18T01:50:47.352Z,83.55
2022-12-18T01:53:23.549Z,81.53
2022-12-18T01:55:56.858Z,75.60
2022-12-18T01:58:43.698Z,80.55
2022-12-18T02:01:11.692Z,77.72
2022-12-18T02:03:43.773Z,73.13
2022-12-18T02:06:28.640Z,81.20
2022-12-18T02:09:11.983Z,78.50
2022-12-18T02:12:18.754Z,70.40
2022-12-18T02:15:04.424Z,70.68
2022-12-18T02:17:51.542Z,76.80
2022-12-18T02:20:53.216Z,80.50
2022-12-18T02:23:52.617Z,78.03
2022-12-18T02:26:33.189Z,84.38
2022-12-18T02:29:09.827Z,79.75
2022-12-18T02:31:49.156Z,80.55
2022-12-18T02:34:20.020Z,90.53
2022-12-18T02:36:50.467Z,81.72
2022-12-18T02:39:22.125Z,87.93
2022-12-18T02:42:00.818Z,82.72
2022-12-18T02:44:28.440Z,87.45
2022-12-18T02:46:56.333Z,84.65
2022-12-18T02:50:00.043Z,85.68
2022-12-18T02:52:55.541Z,73.93
2022-12-18T02:56:07.050Z,78.82
2022-12-18T02:59:13.793Z,79.97
2022-12-18T03:02:53.832Z,75.97
2022-12-18T03:05:34.492Z,72.28
2022-12-18T03:08:21.501Z,79.00
2022-12-18T03:11:04.528Z,78.93
2022-12-18T03:13:57.201Z,75.78
2022-12-18T03:16:32.340Z,74.57
2022-12-18T03:19:12.362Z,76.28
2022-12-18T03:21:53.072Z,77.57
2022-12-18T03:24:23.300Z,78.43
2022-12-18T03:26:59.818Z,75.95
2022-12-18T03:29:44.970Z,75.05
2022-12-18T03:32:32.371Z,82.80
2022-12-18T03:35:06.852Z,76.97
2022-12-18T03:37:37.963Z,85.40
2022-12-18T03:40:07.652Z,78.22
2022-12-18T03:42:54.590Z,72.00
2022-12-18T03:45:37.156Z,74.90
2022-12-18T03:48:55.692Z,72.35
2022-12-18T03:52:18.255Z,69.63
2022-12-18T03:54:48.091Z,73.80
2022-12-18T03:57:30.251Z,71.47
2022-12-18T04:00:15.566Z,67.43
2022-12-18T04:02:58.135Z,68.28
2022-12-18T04:05:36.425Z,69.38
2022-12-18T04:08:05.682Z,72.30
2022-12-18T04:10:37.751Z,73.32
2022-12-18T04:13:05.345Z,73.13
2022-12-18T04:15:38.039Z,65.35
2022-12-18T04:18:09.631Z,71.60
2022-12-18T04:20:41.083Z,71.22
2022-12-18T04:23:11.507Z,66.45
2022-12-18T04:25:39.818Z,71.50
2022-12-18T04:28:17.559Z,70.22
2022-12-18T04:30:45.227Z,66.45
2022-12-18T04:33:18.483Z,64.63
2022-12-18T04:35:46.905Z,63.75
2022-12-18T04:38:15.155Z,64.18
2022-12-18T04:40:43.049Z,62.08
2022-12-18T04:43:18.604Z,68.03
2022-12-18T04:45:45.943Z,67.05
2022-12-18T04:48:13.548Z,64.85
2022-12-18T04:50:41.054Z,59.95
2022-12-18T04:53:08.773Z,67.40
2022-12-18T04:55:40.155Z,59.40
2022-12-18T04:58:07.625Z,58.50
2022-12-18T05:00:35.122Z,59.97
2022-12-18T05:03:03.922Z,60.40
2022-12-18T05:05:31.782Z,61.47
2022-12-18T05:07:59.174Z,54.50
2022-12-18T05:10:26.672Z,55.47
2022-12-18T05:13:01.039Z,53.03
2022-12-18T05:15:34.123Z,55.67
2022-12-18T05:18:03.786Z,54.08
2022-12-18T05:20:31.931Z,54.92
2022-12-18T05:22:59.346Z,58.58
2022-12-18T05:25:27.086Z,61.03
2022-12-18T05:27:55.285Z,58.75
2022-12-18T05:30:23.544Z,58.92
2022-12-18T05:32:51.081Z,57.33
2022-12-18T05:35:18.548Z,59.72
2022-12-18T05:37:47.461Z,62.80
2022-12-18T05:40:15.091Z,59.65
2022-12-18T05:42:42.483Z,55.13
2022-12-18T05:45:10.475Z,55.65
2022-12-18T05:47:38.189Z,57.30
2022-12-18T05:50:07.966Z,55.33
2022-12-18T05:52:35.492Z,54.95
2022-12-18T05:55:03.109Z,54.65
2022-12-18T05:57:30.982Z,58.40
2022-12-18T05:59:58.892Z,55.83
2022-12-18T06:02:26.813Z,52.55
2022-12-18T06:04:54.429Z,51.63
2022-12-18T06:07:21.914Z,51.55
2022-12-18T06:09:51.678Z,53.85
2022-12-18T06:12:19.033Z,57.30
2022-12-18T06:14:46.650Z,60.65
2022-12-18T06:17:13.945Z,55.35
2022-12-18T06:19:41.308Z,59.53
2022-12-18T06:22:08.721Z,59.22
2022-12-18T06:24:36.065Z,59.25
2022-12-18T06:27:03.410Z,58.17
2022-12-18T06:29:30.844Z,63.08
2022-12-18T06:31:58.552Z,60.35
2022-12-18T06:34:25.979Z,80.32
2022-12-18T06:36:53.378Z,88.20
2022-12-18T06:39:21.105Z,63.05
2022-12-18T06:41:48.743Z,62.25
2022-12-18T06:44:16.276Z,55.95
2022-12-18T06:46:43.655Z,60.10
2022-12-18T06:49:11.207Z,55.25
2022-12-18T06:51:39.027Z,54.65
2022-12-18T06:54:06.665Z,55.30
2022-12-18T06:56:35.415Z,59.28
2022-12-18T06:59:02.988Z,65.82
2022-12-18T07:01:30.757Z,62.47
2022-12-18T07:04:07.125Z,64.70
2022-12-18T07:06:37.752Z,58.65
2022-12-18T07:09:05.265Z,59.15
2022-12-18T07:11:34.957Z,66.95
2022-12-18T07:14:02.618Z,64.50
2022-12-18T07:16:30.200Z,63.58
2022-12-18T07:18:58.045Z,64.45
2022-12-18T07:21:26.542Z,60.97
2022-12-18T07:23:54.332Z,63.75
2022-12-18T07:26:23.119Z,68.57
2022-12-18T07:28:51.826Z,65.35
2022-12-18T07:31:22.869Z,60.42
2022-12-18T07:33:54.275Z,61.08
2022-12-18T07:36:21.787Z,66.00
2022-12-18T07:38:52.607Z,63.55
2022-12-18T07:41:20.290Z,65.60
2022-12-18T07:43:48.190Z,58.85
2022-12-18T07:46:17.312Z,60.55
2022-12-18T07:48:49.516Z,57.67
2022-12-18T07:51:18.885Z,61.10
2022-12-18T07:53:49.449Z,56.67
2022-12-18T07:56:30.537Z,63.30
2022-12-18T07:59:00.218Z,63.88
2022-12-18T08:01:28.532Z,59.75
2022-12-18T08:03:57.259Z,68.43
2022-12-18T08:06:28.023Z,69.38
2022-12-18T08:08:57.571Z,67.75
2022-12-18T08:11:28.815Z,61.97
2022-12-18T08:13:57.302Z,67.57
2022-12-18T08:16:28.069Z,65.07
2022-12-18T08:18:55.982Z,61.65
2022-12-18T08:21:31.596Z,67.03
2022-12-18T08:24:02.376Z,65.60
2022-12-18T08:26:32.326Z,72.50
2022-12-18T08:29:01.954Z,69.03
2022-12-18T08:31:31.547Z,63.83
2022-12-18T08:34:24.943Z,63.10
2022-12-18T08:36:52.376Z,66.40
2022-12-18T08:39:19.968Z,65.18
2022-12-18T08:42:10.214Z,67.05
2022-12-18T08:44:41.216Z,63.55
2022-12-18T08:47:09.292Z,69.28
2022-12-18T08:49:37.568Z,69.45
2022-12-18T08:52:05.367Z,65.07
2022-12-18T08:54:32.878Z,69.88
2022-12-18T08:57:03.199Z,65.45
2022-12-18T08:59:31.174Z,67.43
2022-12-18T09:01:58.700Z,62.95
2022-12-18T09:04:26.290Z,61.08
2022-12-18T09:06:57.086Z,63.05
2022-12-18T09:09:24.431Z,56.58
2022-12-18T09:11:52.044Z,60.83
2022-12-18T09:14:19.953Z,59.90
2022-12-18T09:16:51.170Z,57.60
2022-12-18T09:19:18.852Z,61.22
2022-12-18T09:21:48.455Z,56.75
2022-12-18T09:24:17.819Z,61.38
2022-12-18T09:26:58.034Z,61.33
2022-12-18T09:29:38.734Z,63.72
2022-12-18T09:32:22.519Z,57.30
2022-12-18T09:34:50.332Z,61.17
2022-12-18T09:37:17.977Z,56.58
2022-12-18T09:39:45.638Z,50.67
2022-12-18T09:42:23.572Z,58.35
2022-12-18T09:44:55.233Z,49.30
2022-12-18T09:47:41.887Z,51.70
2022-12-18T09:50:41.894Z,51.70
2022-12-18T09:53:23.984Z,44.83
2022-12-18T09:55:55.538Z,44.65
2022-12-18T09:58:45.467Z,45.25
2022-12-18T10:01:23.865Z,44.05
2022-12-18T10:03:54.611Z,43.92
2022-12-18T10:06:33.196Z,43.90
2022-12-18T10:09:35.897Z,43.47
2022-12-18T10:12:32.174Z,42.78
2022-12-18T10:15:16.911Z,38.65
2022-12-18T10:18:24.184Z,46.08
2022-12-18T10:21:05.468Z,41.58
2022-12-18T10:24:18.922Z,44.08
2022-12-18T10:26:48.849Z,42.38
2022-12-18T10:29:18.303Z,46.75
2022-12-18T10:31:46.038Z,42.25
2022-12-18T10:34:14.409Z,42.88
2022-12-18T10:36:43.746Z,44.63
2022-12-18T10:39:27.190Z,42.72
2022-12-18T10:42:18.373Z,46.00
2022-12-18T10:44:46.560Z,44.40
2022-12-18T10:47:20.525Z,43.50
2022-12-18T10:49:54.322Z,47.50
2022-12-18T10:52:29.613Z,47.45
2022-12-18T10:55:05.641Z,47.28
2022-12-18T10:57:42.733Z,47.80
2022-12-18T11:00:37.463Z,43.88
2022-12-18T11:03:37.040Z,47.67
2022-12-18T11:06:26.078Z,50.58
2022-12-18T11:09:14.460Z,53.45
2022-12-18T11:12:00.271Z,48.22
2022-12-18T11:14:49.889Z,49.45
2022-12-18T11:17:36.678Z,46.35
2022-12-18T11:20:29.209Z,54.85
2022-12-18T11:23:14.212Z,43.97
2022-12-18T11:25:54.927Z,54.33
2022-12-18T11:28:45.852Z,49.50
2022-12-18T11:31:26.778Z,44.20
2022-12-18T11:36:55.937Z,49.63
2022-12-18T11:39:46.263Z,46.65
2022-12-18T11:42:50.145Z,45.83
2022-12-18T11:45:32.701Z,49.35
2022-12-18T11:48:50.048Z,54.17
2022-12-18T11:51:37.143Z,48.92
2022-12-18T11:54:16.948Z,48.53
2022-12-18T11:57:46.531Z,49.10
2022-12-18T12:00:20.321Z,49.58
2022-12-18T12:03:29.171Z,53.35
2022-12-18T12:06:15.819Z,48.55
2022-12-18T12:09:03.851Z,52.25
2022-12-18T12:13:05.521Z,46.78
2022-12-18T12:16:33.547Z,52.85
2022-12-18T12:19:19.595Z,50.60
2022-12-18T12:22:07.745Z,47.83
2022-12-18T12:24:53.305Z,49.88
2022-12-18T12:27:56.619Z,51.17
2022-12-18T12:30:54.504Z,51.78
2022-12-18T12:33:36.769Z,49.08
2022-12-18T12:36:36.454Z,53.63
2022-12-18T12:39:18.943Z,52.65
2022-12-18T12:42:06.664Z,50.22
2022-12-18T12:44:56.180Z,49.20
2022-12-18T12:47:39.947Z,51.78
2022-12-18T12:50:19.973Z,52.90
2022-12-18T12:52:58.367Z,48.88
2022-12-18T12:55:54.431Z,51.97
2022-12-18T12:58:49.176Z,49.58
2022-12-18T13:01:49.576Z,51.45
2022-12-18T13:04:53.747Z,49.55
2022-12-18T13:08:04.644Z,50.65
2022-12-18T13:10:43.363Z,50.95
2022-12-18T13:13:23.219Z,52.38
2022-12-18T13:16:08.227Z,46.47
2022-12-18T13:18:37.115Z,54.20
2022-12-18T13:21:22.456Z,50.35
2022-12-18T13:23:50.369Z,55.50
2022-12-18T13:26:18.059Z,49.20
2022-12-18T13:28:47.445Z,51.08
2022-12-18T13:31:43.384Z,51.00
2022-12-18T13:34:28.097Z,51.13
2022-12-18T13:37:32.289Z,51.40
2022-12-18T13:39:59.889Z,56.75
2022-12-18T13:43:00.350Z,57.72
2022-12-18T13:45:50.394Z,49.92
2022-12-18T13:48:25.257Z,50.10
2022-12-18T13:51:11.270Z,53.45
2022-12-18T13:53:53.950Z,52.22
2022-12-18T13:56:33.651Z,51.83
2022-12-18T13:59:23.878Z,49.80
2022-12-18T14:02:03.838Z,47.33
2022-12-18T14:04:36.187Z,52.13
2022-12-18T14:07:18.909Z,47.92
2022-12-18T14:13:02.009Z,48.75
2022-12-18T14:15:41.410Z,54.83
2022-12-18T14:18:45.496Z,47.92
2022-12-18T14:21:30.467Z,52.33
2022-12-18T14:24:21.355Z,55.72
2022-12-18T14:26:52.027Z,55.03
2022-12-18T14:29:32.125Z,51.03
2022-12-18T14:32:22.038Z,53.25
2022-12-18T14:34:55.293Z,50.53
2022-12-18T14:37:28.918Z,54.20
2022-12-18T14:40:11.061Z,48.08
2022-12-18T14:42:39.201Z,48.83
2022-12-18T14:45:45.150Z,48.92
2022-12-18T14:48:13.785Z,52.35
2022-12-18T14:50:44.323Z,52.75
2022-12-18T14:53:37.737Z,50.95
2022-12-18T14:56:23.440Z,48.92
2022-12-18T14:59:26.151Z,55.47
2022-12-18T15:02:26.971Z,51.42
2022-12-18T15:05:17.560Z,54.92
2022-12-18T15:07:52.444Z,54.25
2022-12-18T15:10:33.693Z,52.53
2022-12-18T15:13:01.515Z,54.58
2022-12-18T15:15:37.723Z,51.70
2022-12-18T15:18:11.528Z,56.35
2022-12-18T15:21:00.381Z,55.92
2022-12-18T15:23:48.088Z,52.70
2022-12-18T15:26:20.278Z,57.13
2022-12-18T15:29:04.011Z,55.78
2022-12-18T15:31:38.596Z,55.25
2022-12-18T15:34:09.373Z,53.78
2022-12-18T15:36:37.600Z,56.45
2022-12-18T15:39:07.069Z,58.40
2022-12-18T15:41:37.710Z,61.30
2022-12-18T15:44:25.080Z,59.95
2022-12-18T15:46:52.659Z,61.30
2022-12-18T15:49:20.366Z,58.42
2022-12-18T15:51:56.434Z,56.72
2022-12-18T15:54:44.418Z,64.35
2022-12-18T15:57:25.628Z,59.85
2022-12-18T15:59:59.127Z,59.08
2022-12-18T16:02:29.380Z,56.40
2022-12-18T16:04:57.888Z,58.38
2022-12-18T16:07:28.182Z,57.28
2022-12-18T16:09:58.878Z,58.78
2022-12-18T16:12:27.935Z,59.92
2022-12-18T16:14:55.433Z,55.72
2022-12-18T16:17:23.013Z,58.90
2022-12-18T16:19:55.158Z,57.65
2022-12-18T16:22:31.851Z,64.68
2022-12-18T16:24:59.618Z,68.35
2022-12-18T16:27:27.544Z,67.07
2022-12-18T16:29:55.769Z,63.28
2022-12-18T16:32:24.615Z,63.50
2022-12-18T16:34:52.650Z,60.85
2022-12-18T16:37:20.051Z,58.67
2022-12-18T16:39:47.728Z,60.63
2022-12-18T16:42:21.205Z,62.85
2022-12-18T16:44:50.343Z,64.85
2022-12-18T16:47:19.329Z,67.15
2022-12-18T16:49:47.710Z,58.03
2022-12-18T16:52:16.581Z,51.63
2022-12-18T16:54:46.099Z,55.38
2022-12-18T16:57:19.746Z,54.92
2022-12-18T16:59:49.280Z,53.95
2022-12-18T17:02:25.225Z,55.42
2022-12-18T17:04:59.821Z,58.67
2022-12-18T17:07:28.450Z,56.10
2022-12-18T17:09:56.723Z,54.85
2022-12-18T17:12:25.055Z,59.17
2022-12-18T17:14:52.514Z,52.58
2022-12-18T17:17:21.803Z,55.67
2022-12-18T17:19:52.150Z,55.17
2022-12-18T17:22:23.574Z,50.03
2022-12-18T17:24:50.954Z,53.78
2022-12-18T17:27:18.758Z,58.13
2022-12-18T17:29:48.326Z,49.55
2022-12-18T17:32:18.158Z,48.45
2022-12-18T17:34:46.126Z,49.78
2022-12-18T17:37:14.350Z,47.95
2022-12-18T17:39:42.475Z,45.05
2022-12-18T17:42:14.812Z,46.33
2022-12-18T17:44:44.467Z,43.58
2022-12-18T17:47:17.495Z,46.33
2022-12-18T17:49:45.104Z,46.78
2022-12-18T17:52:12.472Z,48.67
2022-12-18T17:54:42.147Z,46.22
2022-12-18T17:57:10.979Z,42.17
2022-12-18T17:59:38.781Z,49.03
2022-12-18T18:02:06.499Z,45.60
2022-12-18T18:04:34.422Z,39.47
2022-12-18T18:07:01.883Z,43.33
2022-12-18T18:09:29.326Z,50.13
2022-12-18T18:12:15.893Z,43.28
2022-12-18T18:14:43.639Z,45.67
2022-12-18T18:17:11.228Z,45.22
2022-12-18T18:19:39.375Z,45.47
2022-12-18T18:22:07.910Z,40.83
2022-12-18T18:24:35.520Z,46.83
2022-12-18T18:27:03.239Z,42.28
2022-12-18T18:29:30.683Z,46.53
2022-12-18T18:31:59.241Z,43.97
2022-12-18T18:34:31.069Z,44.88
2022-12-18T18:36:58.605Z,43.13
2022-12-18T18:39:27.038Z,45.22
2022-12-18T18:41:55.062Z,47.53
2022-12-18T18:44:25.993Z,46.50
2022-12-18T18:46:58.611Z,47.88
2022-12-18T18:49:28.076Z,45.45
2022-12-18T18:51:57.830Z,44.45
2022-12-18T18:54:26.816Z,45.88
2022-12-18T18:59:43.765Z,44.08
2022-12-18T19:02:17.445Z,44.85
2022-12-18T19:04:46.658Z,49.63
2022-12-18T19:07:29.355Z,47.90
2022-12-18T19:10:04.189Z,46.63
2022-12-18T19:12:53.481Z,46.85
2022-12-18T19:15:22.291Z,45.67
2022-12-18T19:17:50.159Z,47.17
2022-12-18T19:20:18.201Z,43.08
2022-12-18T19:22:47.937Z,49.33
2022-12-18T19:25:38.627Z,50.95
2022-12-18T19:28:18.992Z,51.17
2022-12-18T19:30:58.669Z,53.45
2022-12-18T19:33:45.719Z,55.92
2022-12-18T19:36:25.148Z,54.97
2022-12-18T19:38:57.585Z,52.80
2022-12-18T19:41:29.121Z,52.05
2022-12-18T19:43:58.947Z,60.10
2022-12-18T19:46:26.406Z,58.17
2022-12-18T19:48:53.976Z,53.15
2022-12-18T19:51:28.910Z,49.80
2022-12-18T19:54:01.373Z,51.03
2022-12-18T19:56:34.909Z,51.45
2022-12-18T19:59:05.398Z,52.50
2022-12-18T20:01:33.666Z,51.67
2022-12-18T20:04:01.799Z,50.40
2022-12-18T20:06:53.408Z,53.42
2022-12-18T20:09:22.054Z,54.13
2022-12-18T20:11:50.591Z,50.85
2022-12-18T20:14:22.808Z,53.30
2022-12-18T20:16:52.487Z,52.35
2022-12-18T20:19:22.379Z,55.33
2022-12-18T20:21:50.321Z,63.25
2022-12-18T20:24:18.039Z,56.78
2022-12-18T20:26:45.636Z,60.13
2022-12-18T20:29:13.385Z,61.03
2022-12-18T20:31:41.516Z,57.10
2022-12-18T20:34:09.151Z,60.58
2022-12-18T20:36:39.818Z,64.53
2022-12-18T20:39:10.972Z,59.80
2022-12-18T20:41:40.324Z,58.63
2022-12-18T20:44:21.935Z,58.47
2022-12-18T20:46:57.877Z,58.28
2022-12-18T20:49:27.679Z,58.30
2022-12-18T20:51:57.803Z,54.65
2022-12-18T20:54:28.216Z,55.35
2022-12-18T20:56:56.807Z,59.17
2022-12-18T20:59:25.854Z,56.40
2022-12-18T21:01:54.390Z,58.08
2022-12-18T21:04:24.262Z,59.15
2022-12-18T21:37:19.491Z,53.25
2022-12-18T21:55:35.336Z,55.30
2022-12-18T22:08:23.329Z,55.28
2022-12-18T22:10:52.114Z,52.22
2022-12-18T22:13:19.389Z,51.30
2022-12-18T22:24:22.213Z,51.50
2022-12-18T22:27:01.829Z,58.50
2022-12-18T22:29:51.871Z,51.20
2022-12-18T22:32:30.750Z,51.90
2022-12-18T22:35:06.212Z,58.58
2022-12-18T22:37:35.531Z,50.03
2022-12-18T22:45:27.866Z,52.70
2022-12-18T22:47:55.586Z,51.30
2022-12-18T22:50:23.051Z,57.80
2022-12-18T22:52:50.572Z,51.03
2022-12-18T22:55:18.408Z,52.05
2022-12-18T22:57:48.539Z,55.97
2022-12-18T23:00:24.625Z,49.33
2022-12-18T23:02:59.984Z,53.63
2022-12-18T23:05:30.912Z,53.88
2022-12-18T23:07:59.279Z,51.35
2022-12-18T23:10:27.437Z,51.78
2022-12-18T23:12:54.920Z,52.95
2022-12-18T23:15:27.731Z,57.72
2022-12-18T23:17:58.888Z,59.70
2022-12-18T23:20:28.205Z,55.80
2022-12-18T23:22:55.724Z,55.08
2022-12-18T23:25:23.993Z,56.83
2022-12-18T23:27:52.047Z,56.75
2022-12-18T23:30:19.635Z,59.22
2022-12-18T23:32:47.181Z,54.50
2022-12-18T23:35:16.022Z,56.72
2022-12-18T23:37:58.985Z,56.17
2022-12-18T23:40:29.569Z,54.03
2022-12-18T23:42:57.823Z,55.92
2022-12-18T23:45:25.239Z,58.55
2022-12-18T23:47:52.874Z,57.05
2022-12-18T23:50:22.114Z,53.35
2022-12-18T23:52:57.698Z,55.50
2022-12-18T23:55:40.715Z,52.97
2022-12-18T23:58:19.489Z,56.47
